createdAt,value
2023-10-23T00:00:20.048Z,1.50
2023-10-23T00:03:05.223Z,1.25
2023-10-23T00:05:50.214Z,1.07
2023-10-23T00:08:35.278Z,1.08
2023-10-23T00:11:28.589Z,1.20
2023-10-23T00:14:13.520Z,1.40
2023-10-23T00:16:58.647Z,1.17
2023-10-23T00:19:43.620Z,1.07
2023-10-23T00:22:28.918Z,1.10
2023-10-23T00:25:13.977Z,0.90
2023-10-23T00:27:58.776Z,1.20
2023-10-23T00:30:45.034Z,0.93
2023-10-23T00:33:29.954Z,1.00
2023-10-23T00:36:15.057Z,1.08
2023-10-23T00:38:59.786Z,1.08
2023-10-23T00:41:45.695Z,1.30
2023-10-23T00:44:31.293Z,0.90
2023-10-23T00:47:22.198Z,0.90
2023-10-23T00:50:07.813Z,0.93
2023-10-23T00:52:52.624Z,1.10
2023-10-23T00:55:37.731Z,0.90
2023-10-23T00:58:26.294Z,1.20
2023-10-23T01:01:15.655Z,0.70
2023-10-23T01:04:01.567Z,0.90
2023-10-23T01:06:46.957Z,1.00
2023-10-23T01:09:32.100Z,0.75
2023-10-23T01:12:17.385Z,1.00
2023-10-23T01:15:02.721Z,1.17
2023-10-23T01:17:48.972Z,0.95
2023-10-23T01:20:34.450Z,0.90
2023-10-23T01:23:24.602Z,1.10
2023-10-23T01:26:09.403Z,1.05
2023-10-23T01:28:54.456Z,1.00
2023-10-23T01:31:39.755Z,1.10
2023-10-23T01:34:24.962Z,0.77
2023-10-23T01:37:10.091Z,1.02
2023-10-23T01:39:55.126Z,1.00
2023-10-23T01:42:41.453Z,1.23
2023-10-23T01:45:27.379Z,1.00
2023-10-23T01:48:12.542Z,1.30
2023-10-23T01:51:01.379Z,1.00
2023-10-23T01:53:46.199Z,1.13
2023-10-23T01:56:31.284Z,1.37
2023-10-23T01:59:16.369Z,1.30
2023-10-23T02:02:01.567Z,1.60
2023-10-23T02:04:47.100Z,1.30
2023-10-23T02:07:31.917Z,1.40
2023-10-23T02:10:16.975Z,1.33
2023-10-23T02:13:02.102Z,1.30
2023-10-23T02:15:47.160Z,1.90
2023-10-23T02:18:32.265Z,1.45
2023-10-23T02:21:17.514Z,1.23
2023-10-23T02:24:03.000Z,1.50
2023-10-23T02:26:49.079Z,1.30
2023-10-23T02:29:34.055Z,1.48
2023-10-23T02:32:19.187Z,1.20
2023-10-23T02:35:04.394Z,1.55
2023-10-23T02:37:50.747Z,1.43
2023-10-23T02:40:36.026Z,1.40
2023-10-23T02:43:22.157Z,1.48
2023-10-23T02:46:07.530Z,1.85
2023-10-23T02:48:53.249Z,1.50
2023-10-23T02:51:39.297Z,1.63
2023-10-23T02:54:24.956Z,1.40
2023-10-23T02:57:10.081Z,1.40
2023-10-23T02:59:56.767Z,1.80
2023-10-23T03:02:44.559Z,1.88
2023-10-23T03:05:29.881Z,2.00
2023-10-23T03:08:15.746Z,1.83
2023-10-23T03:11:01.142Z,1.60
2023-10-23T03:13:46.541Z,1.77
2023-10-23T03:16:31.645Z,1.80
2023-10-23T03:19:16.857Z,1.70
2023-10-23T03:22:02.023Z,1.75
2023-10-23T03:24:47.103Z,2.17
2023-10-23T03:27:33.178Z,1.80
2023-10-23T03:30:18.477Z,2.00
2023-10-23T03:33:04.021Z,1.70
2023-10-23T03:35:49.006Z,1.63
2023-10-23T03:38:34.318Z,1.90
2023-10-23T03:41:19.458Z,1.73
2023-10-23T03:44:05.292Z,1.77
2023-10-23T03:46:50.230Z,1.90
2023-10-23T03:49:35.197Z,2.10
2023-10-23T03:52:20.291Z,2.50
2023-10-23T03:55:05.820Z,2.63
2023-10-23T03:57:50.877Z,2.25
2023-10-23T04:00:35.918Z,2.20
2023-10-23T04:03:20.872Z,2.20
2023-10-23T04:06:05.905Z,2.50
2023-10-23T04:08:53.719Z,2.80
2023-10-23T04:11:38.861Z,3.00
2023-10-23T04:14:23.812Z,2.40
2023-10-23T04:17:08.741Z,2.75
2023-10-23T04:19:53.672Z,2.25
2023-10-23T04:22:38.864Z,2.58
2023-10-23T04:25:23.979Z,2.30
2023-10-23T04:28:08.979Z,2.10
2023-10-23T04:30:54.449Z,2.10
2023-10-23T04:33:39.747Z,2.33
2023-10-23T04:36:24.868Z,2.28
2023-10-23T04:39:09.980Z,2.17
2023-10-23T04:41:55.265Z,2.33
2023-10-23T04:44:40.610Z,2.10
2023-10-23T04:47:25.621Z,2.15
2023-10-23T04:50:13.144Z,2.40
2023-10-23T04:53:00.472Z,2.05
2023-10-23T04:55:45.354Z,2.40
2023-10-23T04:58:30.887Z,2.60
2023-10-23T05:01:17.354Z,2.30
2023-10-23T05:04:02.328Z,2.05
2023-10-23T05:06:47.199Z,2.20
2023-10-23T05:09:32.274Z,2.00
2023-10-23T05:12:17.470Z,2.60
2023-10-23T05:15:03.654Z,2.42
2023-10-23T05:17:48.945Z,2.58
2023-10-23T05:20:35.030Z,2.30
2023-10-23T05:23:20.261Z,1.93
2023-10-23T05:26:05.448Z,2.17
2023-10-23T05:28:52.573Z,1.98
2023-10-23T05:31:37.634Z,1.90
2023-10-23T05:34:22.576Z,2.05
2023-10-23T05:37:07.424Z,2.03
2023-10-23T05:39:52.393Z,2.13
2023-10-23T05:42:37.636Z,2.03
2023-10-23T05:45:22.582Z,2.33
2023-10-23T05:48:07.501Z,2.08
2023-10-23T05:51:00.191Z,2.40
2023-10-23T05:53:46.521Z,1.90
2023-10-23T05:56:31.844Z,2.38
2023-10-23T05:59:16.760Z,2.25
2023-10-23T06:02:01.983Z,2.50
2023-10-23T06:04:46.954Z,2.07
2023-10-23T06:07:32.007Z,2.25
2023-10-23T06:10:16.988Z,2.35
2023-10-23T06:13:01.997Z,2.50
2023-10-23T06:15:47.125Z,2.50
2023-10-23T06:18:36.688Z,2.77
2023-10-23T06:21:21.807Z,2.65
2023-10-23T06:24:06.860Z,2.70
2023-10-23T06:26:52.031Z,3.10
2023-10-23T06:29:37.242Z,2.83
2023-10-23T06:32:22.429Z,3.10
2023-10-23T06:35:07.772Z,3.25
2023-10-23T06:37:53.014Z,3.42
2023-10-23T06:40:38.268Z,2.88
2023-10-23T06:43:23.238Z,2.88
2023-10-23T06:46:08.518Z,3.33
2023-10-23T06:48:53.582Z,2.60
2023-10-23T06:51:38.670Z,2.58
2023-10-23T06:54:24.953Z,2.72
2023-10-23T06:57:10.060Z,2.58
2023-10-23T06:59:56.077Z,2.07
2023-10-23T07:02:41.430Z,1.95
2023-10-23T07:05:26.403Z,2.50
2023-10-23T07:08:11.465Z,2.08
2023-10-23T07:10:56.548Z,2.20
2023-10-23T07:13:41.526Z,2.17
2023-10-23T07:16:27.013Z,1.60
2023-10-23T07:19:12.264Z,2.35
2023-10-23T07:21:57.335Z,1.80
2023-10-23T07:24:42.099Z,2.17
2023-10-23T07:27:28.838Z,2.37
2023-10-23T07:30:16.152Z,2.25
2023-10-23T07:33:00.962Z,2.22
2023-10-23T07:35:53.442Z,2.15
2023-10-23T07:38:41.994Z,2.17
2023-10-23T07:41:27.226Z,1.90
2023-10-23T07:44:12.350Z,2.90
2023-10-23T07:46:57.720Z,3.53
2023-10-23T07:49:42.554Z,2.78
2023-10-23T07:52:27.752Z,2.90
2023-10-23T07:55:12.488Z,2.60
2023-10-23T07:57:57.428Z,2.60
2023-10-23T08:00:42.552Z,2.92
2023-10-23T08:03:27.656Z,3.45
2023-10-23T08:06:13.613Z,2.50
2023-10-23T08:08:58.770Z,2.77
2023-10-23T08:11:43.932Z,2.53
2023-10-23T08:14:28.787Z,2.75
2023-10-23T08:17:24.055Z,2.90
2023-10-23T08:20:16.135Z,2.92
2023-10-23T08:23:01.132Z,3.33
2023-10-23T08:25:45.961Z,3.25
2023-10-23T08:28:49.233Z,3.70
2023-10-23T08:31:40.084Z,4.15
2023-10-23T08:34:26.097Z,4.15
2023-10-23T08:37:11.655Z,4.43
2023-10-23T08:39:56.728Z,4.53
2023-10-23T08:42:42.146Z,4.68
2023-10-23T08:45:26.982Z,5.03
2023-10-23T08:48:12.320Z,5.10
2023-10-23T08:50:58.420Z,4.33
2023-10-23T08:54:06.875Z,4.38
2023-10-23T08:57:00.593Z,4.30
2023-10-23T08:59:45.761Z,4.65
2023-10-23T09:02:32.546Z,4.00
2023-10-23T09:05:18.641Z,4.87
2023-10-23T09:08:07.266Z,4.57
2023-10-23T09:11:04.292Z,4.65
2023-10-23T09:13:49.433Z,4.70
2023-10-23T09:16:34.705Z,4.70
2023-10-23T09:19:27.342Z,4.47
2023-10-23T09:22:12.473Z,4.50
2023-10-23T09:24:57.506Z,4.45
2023-10-23T09:27:42.563Z,4.32
2023-10-23T09:30:27.462Z,4.60
2023-10-23T09:33:15.593Z,3.83
2023-10-23T09:36:02.029Z,4.65
2023-10-23T09:38:59.217Z,3.92
2023-10-23T09:41:46.633Z,3.97
2023-10-23T09:44:32.134Z,3.80
2023-10-23T09:47:19.480Z,2.80
2023-10-23T09:50:05.595Z,3.03
2023-10-23T09:52:52.157Z,3.22
2023-10-23T09:55:40.941Z,2.78
2023-10-23T09:58:28.132Z,3.33
2023-10-23T10:01:15.338Z,3.13
2023-10-23T10:04:09.921Z,3.13
2023-10-23T10:07:01.149Z,2.88
2023-10-23T10:09:46.489Z,2.90
2023-10-23T10:12:35.464Z,2.92
2023-10-23T10:15:20.912Z,2.77
2023-10-23T10:18:05.958Z,2.78
2023-10-23T10:20:58.711Z,2.97
2023-10-23T10:23:44.473Z,2.28
2023-10-23T10:26:30.723Z,3.08
2023-10-23T10:29:15.841Z,3.40
2023-10-23T10:32:13.461Z,2.50
2023-10-23T10:35:04.559Z,2.50
2023-10-23T10:37:49.841Z,2.42
2023-10-23T10:41:01.006Z,2.75
2023-10-23T10:43:53.995Z,2.90
2023-10-23T10:46:43.160Z,2.55
2023-10-23T10:49:32.681Z,2.40
2023-10-23T10:52:34.089Z,2.80
2023-10-23T10:55:19.191Z,2.78
2023-10-23T10:58:05.384Z,3.17
2023-10-23T11:00:51.115Z,2.60
2023-10-23T11:03:37.934Z,2.00
2023-10-23T11:06:24.552Z,2.70
2023-10-23T11:09:09.981Z,2.50
2023-10-23T11:11:58.318Z,2.40
2023-10-23T11:14:43.434Z,2.60
2023-10-23T11:17:28.480Z,2.90
2023-10-23T11:20:14.664Z,2.67
2023-10-23T11:23:00.693Z,2.80
2023-10-23T11:25:55.406Z,2.30
2023-10-23T11:28:40.236Z,2.35
2023-10-23T11:31:25.662Z,2.00
2023-10-23T11:34:10.783Z,2.40
2023-10-23T11:36:55.878Z,3.13
2023-10-23T11:39:43.307Z,1.70
2023-10-23T11:42:28.475Z,1.80
2023-10-23T11:45:14.890Z,1.95
2023-10-23T11:47:59.901Z,1.80
2023-10-23T11:50:45.584Z,2.20
2023-10-23T11:53:36.910Z,1.70
2023-10-23T11:56:22.095Z,1.50
2023-10-23T11:59:07.183Z,2.67
2023-10-23T12:01:54.002Z,1.83
2023-10-23T12:04:38.872Z,1.70
2023-10-23T12:07:24.062Z,1.63
2023-10-23T12:10:10.814Z,1.60
2023-10-23T12:12:56.456Z,1.80
2023-10-23T12:15:41.671Z,1.92
2023-10-23T12:18:27.443Z,1.40
2023-10-23T12:21:13.513Z,1.27
2023-10-23T12:23:58.374Z,1.38
2023-10-23T12:26:43.354Z,1.40
2023-10-23T12:29:29.093Z,1.30
2023-10-23T12:33:14.204Z,1.33
2023-10-23T12:35:20.819Z,1.30
2023-10-23T12:38:06.302Z,1.85
2023-10-23T12:40:51.299Z,1.42
2023-10-23T12:43:36.553Z,1.00
2023-10-23T12:46:21.526Z,0.90
2023-10-23T12:49:06.419Z,0.70
2023-10-23T12:51:51.818Z,0.77
2023-10-23T12:54:36.929Z,0.70
2023-10-23T12:57:22.700Z,0.60
2023-10-23T13:00:09.102Z,1.13
2023-10-23T13:02:54.157Z,0.60
2023-10-23T13:05:39.615Z,0.93
2023-10-23T13:08:24.471Z,1.15
2023-10-23T13:11:10.017Z,0.70
2023-10-23T13:13:55.328Z,0.80
2023-10-23T13:16:40.489Z,0.80
2023-10-23T13:19:25.671Z,0.90
2023-10-23T13:22:15.483Z,0.80
2023-10-23T13:25:00.566Z,0.90
2023-10-23T13:27:45.500Z,0.70
2023-10-23T13:30:30.464Z,0.93
2023-10-23T13:33:15.491Z,0.70
2023-10-23T13:36:00.469Z,0.80
2023-10-23T13:38:45.395Z,0.75
2023-10-23T13:41:31.147Z,0.80
2023-10-23T13:44:16.450Z,0.80
2023-10-23T13:47:01.800Z,0.70
2023-10-23T13:49:46.496Z,0.85
2023-10-23T13:52:31.731Z,0.85
2023-10-23T13:55:17.000Z,0.88
2023-10-23T13:58:02.125Z,1.10
2023-10-23T14:00:49.124Z,0.80
2023-10-23T14:03:35.302Z,0.75
2023-10-23T14:06:20.395Z,1.00
2023-10-23T14:09:43.533Z,0.68
2023-10-23T14:12:12.438Z,0.70
2023-10-23T14:14:57.328Z,0.80
2023-10-23T14:17:42.232Z,0.65
2023-10-23T14:20:28.675Z,0.80
2023-10-23T14:23:14.042Z,0.63
2023-10-23T14:25:59.302Z,0.80
2023-10-23T14:28:44.364Z,0.75
2023-10-23T14:31:29.505Z,0.80
2023-10-23T14:34:15.346Z,0.77
2023-10-23T14:37:00.405Z,0.80
2023-10-23T14:39:45.603Z,0.90
2023-10-23T14:42:30.781Z,0.85
2023-10-23T14:45:15.834Z,1.00
2023-10-23T14:48:01.082Z,0.70
2023-10-23T14:50:47.235Z,0.80
2023-10-23T14:53:33.134Z,0.90
2023-10-23T14:56:18.347Z,1.20
2023-10-23T14:59:03.579Z,0.70
2023-10-23T15:01:50.276Z,0.73
2023-10-23T15:04:37.308Z,1.08
2023-10-23T15:07:22.818Z,0.73
2023-10-23T15:10:08.159Z,0.50
2023-10-23T15:12:53.472Z,0.65
2023-10-23T15:15:39.097Z,0.90
2023-10-23T15:18:23.954Z,1.40
2023-10-23T15:21:09.553Z,0.80
2023-10-23T15:23:54.454Z,1.27
2023-10-23T15:26:41.354Z,1.10
2023-10-23T15:29:26.451Z,1.00
2023-10-23T15:32:12.556Z,1.02
2023-10-23T15:34:57.614Z,1.27
2023-10-23T15:37:43.860Z,1.10
2023-10-23T15:40:31.083Z,1.30
2023-10-23T15:43:21.629Z,7.15
2023-10-23T15:46:13.064Z,5.32
2023-10-23T15:49:00.212Z,2.03
2023-10-23T15:51:45.021Z,1.70
2023-10-23T15:54:29.925Z,1.90
2023-10-23T15:57:15.220Z,1.75
2023-10-23T16:00:00.296Z,1.45
2023-10-23T16:02:45.899Z,1.60
2023-10-23T16:05:32.312Z,1.48
2023-10-23T16:08:18.385Z,1.42
2023-10-23T16:11:04.465Z,1.42
2023-10-23T16:13:49.595Z,1.52
2023-10-23T16:16:34.703Z,1.80
2023-10-23T16:19:19.875Z,1.70
2023-10-23T16:22:05.506Z,2.38
2023-10-23T16:24:50.807Z,2.17
2023-10-23T16:27:36.282Z,2.03
2023-10-23T16:30:22.284Z,2.20
2023-10-23T16:33:08.433Z,2.40
2023-10-23T16:35:53.410Z,4.15
2023-10-23T16:38:38.541Z,5.47
2023-10-23T16:41:23.774Z,8.75
2023-10-23T16:44:09.379Z,2.30
2023-10-23T16:46:55.000Z,1.70
2023-10-23T16:49:41.134Z,2.05
2023-10-23T16:52:26.422Z,1.88
2023-10-23T16:55:12.051Z,2.55
2023-10-23T16:57:58.666Z,1.90
2023-10-23T17:00:43.728Z,2.20
2023-10-23T17:03:28.957Z,1.80
2023-10-23T17:06:14.044Z,1.77
2023-10-23T17:08:59.336Z,2.10
2023-10-23T17:11:45.203Z,2.00
2023-10-23T17:14:32.351Z,1.50
2023-10-23T17:17:17.338Z,1.80
2023-10-23T17:20:02.148Z,1.52
2023-10-23T17:22:47.565Z,1.98
2023-10-23T17:25:32.855Z,1.43
2023-10-23T17:28:17.800Z,1.73
2023-10-23T17:31:04.416Z,3.30
2023-10-23T17:33:49.608Z,1.73
2023-10-23T17:36:35.625Z,1.40
2023-10-23T17:39:20.896Z,2.23
2023-10-23T17:42:05.858Z,1.70
2023-10-23T17:44:51.298Z,1.80
2023-10-23T17:47:36.342Z,1.80
2023-10-23T17:50:21.172Z,1.65
2023-10-23T17:53:06.527Z,2.33
2023-10-23T17:55:51.842Z,1.42
2023-10-23T17:58:38.088Z,1.38
2023-10-23T18:01:23.114Z,2.10
2023-10-23T18:04:10.839Z,1.90
2023-10-23T18:06:56.912Z,1.87
2023-10-23T18:09:44.563Z,1.83
2023-10-23T18:12:38.127Z,2.40
2023-10-23T18:15:24.144Z,2.70
2023-10-23T18:18:09.403Z,2.30
2023-10-23T18:20:55.300Z,2.10
2023-10-23T18:23:40.747Z,1.92
2023-10-23T18:26:25.899Z,1.73
2023-10-23T18:29:11.232Z,1.90
2023-10-23T18:31:57.153Z,2.25
2023-10-23T18:34:42.425Z,1.70
2023-10-23T18:37:28.084Z,1.85
2023-10-23T18:40:13.692Z,1.95
2023-10-23T18:43:01.307Z,2.00
2023-10-23T18:45:46.628Z,2.08
2023-10-23T18:48:32.757Z,1.67
2023-10-23T18:51:18.853Z,1.63
2023-10-23T18:54:03.839Z,1.67
2023-10-23T18:56:48.977Z,1.50
2023-10-23T18:59:34.195Z,1.67
2023-10-23T19:02:19.409Z,1.60
2023-10-23T19:05:04.663Z,1.58
2023-10-23T19:07:50.234Z,1.83
2023-10-23T19:10:35.678Z,1.88
2023-10-23T19:13:21.124Z,1.70
2023-10-23T19:16:06.318Z,1.70
2023-10-23T19:18:51.498Z,1.40
2023-10-23T19:21:36.725Z,1.98
2023-10-23T19:24:21.977Z,2.25
2023-10-23T19:27:07.012Z,1.40
2023-10-23T19:29:53.816Z,2.27
2023-10-23T19:32:39.426Z,2.30
2023-10-23T19:35:25.401Z,1.48
2023-10-23T19:38:11.131Z,1.77
2023-10-23T19:41:01.598Z,2.25
2023-10-23T19:43:50.574Z,1.73
2023-10-23T19:46:35.889Z,1.65
2023-10-23T19:49:21.396Z,2.33
2023-10-23T19:52:09.707Z,1.92
2023-10-23T19:54:55.433Z,1.60
2023-10-23T19:57:49.991Z,1.30
2023-10-23T20:00:35.694Z,1.63
2023-10-23T20:03:20.590Z,1.92
2023-10-23T20:06:08.892Z,1.40
2023-10-23T20:08:54.141Z,1.90
2023-10-23T20:11:39.331Z,1.90
2023-10-23T20:14:24.508Z,2.20
2023-10-23T20:17:09.503Z,2.47
2023-10-23T20:19:55.159Z,1.80
2023-10-23T20:22:40.187Z,1.95
2023-10-23T20:25:25.795Z,3.30
2023-10-23T20:28:11.187Z,3.50
2023-10-23T20:30:56.669Z,2.63
2023-10-23T20:33:42.020Z,3.60
2023-10-23T20:36:27.428Z,2.22
2023-10-23T20:39:12.561Z,2.00
2023-10-23T20:41:57.949Z,2.30
2023-10-23T20:44:42.882Z,2.13
2023-10-23T20:47:28.220Z,2.28
2023-10-23T20:50:13.375Z,2.30
2023-10-23T20:52:58.410Z,1.60
2023-10-23T20:55:43.502Z,1.73
2023-10-23T20:58:28.475Z,2.10
2023-10-23T21:01:14.019Z,1.80
2023-10-23T21:03:59.427Z,4.25
2023-10-23T21:06:44.323Z,2.50
2023-10-23T21:09:30.029Z,1.80
2023-10-23T21:12:14.994Z,2.72
2023-10-23T21:14:59.916Z,2.33
2023-10-23T21:17:44.850Z,1.52
2023-10-23T21:20:29.803Z,1.70
2023-10-23T21:23:14.818Z,2.95
2023-10-23T21:26:07.684Z,2.70
2023-10-23T21:28:52.658Z,2.10
2023-10-23T21:31:37.977Z,2.35
2023-10-23T21:34:23.450Z,1.80
2023-10-23T21:37:08.565Z,1.88
2023-10-23T21:39:53.516Z,2.20
2023-10-23T21:42:40.083Z,2.10
2023-10-23T21:45:27.772Z,1.90
2023-10-23T21:48:13.145Z,2.00
2023-10-23T21:50:58.338Z,1.85
2023-10-23T21:53:43.589Z,2.00
2023-10-23T21:57:19.111Z,2.00
2023-10-23T21:59:35.297Z,1.98
2023-10-23T22:02:20.756Z,1.43
2023-10-23T22:05:06.032Z,2.17
2023-10-23T22:07:52.506Z,2.28
2023-10-23T22:10:38.057Z,2.28
2023-10-23T22:13:23.449Z,2.33
2023-10-23T22:16:08.727Z,1.90
2023-10-23T22:18:53.479Z,1.90
2023-10-23T22:21:38.598Z,2.05
2023-10-23T22:24:23.450Z,2.45
2023-10-23T22:27:08.448Z,2.30
2023-10-23T22:29:53.314Z,2.20
2023-10-23T22:32:38.855Z,2.20
2023-10-23T22:35:23.884Z,2.22
2023-10-23T22:38:10.167Z,2.25
2023-10-23T22:40:55.385Z,2.28
2023-10-23T22:43:40.309Z,2.00
2023-10-23T22:46:25.301Z,2.40
2023-10-23T22:49:10.157Z,2.40
2023-10-23T22:51:55.601Z,2.00
2023-10-23T22:54:41.686Z,2.25
2023-10-23T22:57:27.042Z,2.43
2023-10-23T23:00:14.153Z,2.20
2023-10-23T23:02:59.224Z,2.58
2023-10-23T23:05:46.069Z,2.40
2023-10-23T23:08:37.615Z,2.45
2023-10-23T23:11:23.153Z,1.93
2023-10-23T23:14:08.422Z,2.38
2023-10-23T23:17:00.692Z,3.00
2023-10-23T23:19:50.567Z,2.35
2023-10-23T23:22:35.925Z,2.45
2023-10-23T23:25:20.931Z,2.37
2023-10-23T23:28:05.853Z,2.28
2023-10-23T23:30:50.752Z,2.28
2023-10-23T23:33:35.980Z,2.25
2023-10-23T23:36:21.249Z,2.45
2023-10-23T23:39:06.420Z,2.53
2023-10-23T23:41:51.845Z,1.90
2023-10-23T23:44:36.868Z,2.42
2023-10-23T23:47:22.079Z,2.17
2023-10-23T23:50:07.425Z,2.17
2023-10-23T23:52:52.415Z,2.23
2023-10-23T23:55:38.131Z,2.00
2023-10-23T23:58:26.034Z,2.10
